Time;durP1;ratioP1;P1;durP2;ratioP2;P2;SDS_P1;SDS_P2;PMS_P1;PMS_P2;Temp;Humidity;BMP_temperature;BMP_pressure;BME280_temperature;BME280_humidity;BME280_pressure;Samples;Min_cycle;Max_cycle;Signal;HPM_P1;HPM_P2
2021/01/12 00:01:41;;;;;;;16.57;8.00;;;;;;;-6.32;77.75;98893.75;5075513;28;20028;-63
2021/01/12 00:04:07;;;;;;;14.23;8.60;;;;;;;-6.38;78.33;98892.59;5075529;28;20028;-63
2021/01/12 00:06:32;;;;;;;16.20;7.97;;;;;;;-6.45;78.75;98890.56;5074174;28;20039;-63
2021/01/12 00:08:58;;;;;;;13.27;7.73;;;;;;;-6.44;78.69;98889.78;5075351;28;20032;-63
2021/01/12 00:11:23;;;;;;;15.37;8.30;;;;;;;-6.45;78.34;98886.44;5074017;28;20104;-63
2021/01/12 00:13:49;;;;;;;17.50;8.10;;;;;;;-6.46;79.08;98884.72;5075563;28;20033;-63
2021/01/12 00:16:18;;;;;;;17.50;8.80;;;;;;;-6.45;79.45;98878.97;5075157;28;20029;-63
2021/01/12 00:18:43;;;;;;;13.73;7.43;;;;;;;-6.50;79.11;98881.22;5074332;28;21337;-63
2021/01/12 00:21:09;;;;;;;16.00;8.50;;;;;;;-6.52;79.05;98879.41;5075499;28;20028;-62
2021/01/12 00:23:34;;;;;;;12.50;6.50;;;;;;;-6.55;79.86;98881.75;5073133;28;20376;-62
2021/01/12 00:26:00;;;;;;;10.07;6.80;;;;;;;-6.59;79.01;98878.25;5073469;28;20066;-62
2021/01/12 00:28:25;;;;;;;15.20;8.27;;;;;;;-6.63;80.16;98885.50;5072568;28;20031;-62
2021/01/12 00:30:50;;;;;;;13.80;7.83;;;;;;;-6.64;79.46;98874.66;5073160;28;20024;-62
2021/01/12 00:33:16;;;;;;;16.43;7.77;;;;;;;-6.65;79.76;98885.41;5074911;28;20437;-63
2021/01/12 00:35:41;;;;;;;16.30;8.23;;;;;;;-6.63;79.63;98885.50;5073162;28;20078;-62
2021/01/12 00:38:07;;;;;;;17.80;8.90;;;;;;;-6.62;79.66;98884.72;5074394;28;20127;-62
2021/01/12 00:40:32;;;;;;;18.30;9.97;;;;;;;-6.66;79.43;98870.38;5073783;28;20146;-62
2021/01/12 00:42:57;;;;;;;19.47;9.83;;;;;;;-6.62;79.12;98879.75;5073890;28;20068;-62
2021/01/12 00:45:24;;;;;;;15.80;8.40;;;;;;;-6.66;79.65;98882.84;5073271;28;20021;-62
2021/01/12 00:47:49;;;;;;;13.70;7.87;;;;;;;-6.68;79.20;98881.91;5073968;28;20029;-63
2021/01/12 00:50:14;;;;;;;16.73;7.97;;;;;;;-6.74;78.96;98876.59;5074787;28;20081;-62
2021/01/12 00:52:40;;;;;;;18.23;8.30;;;;;;;-6.79;78.48;98871.38;5074194;28;20051;-62
2021/01/12 00:55:06;;;;;;;14.53;7.30;;;;;;;-6.81;78.39;98882.91;5074949;28;20030;-62
2021/01/12 00:57:31;;;;;;;15.30;8.03;;;;;;;-6.86;78.75;98885.91;5072858;28;20021;-62
2021/01/12 00:59:56;;;;;;;20.03;8.77;;;;;;;-6.90;78.75;98884.91;5074755;28;20055;-62
2021/01/12 01:02:22;;;;;;;14.73;8.00;;;;;;;-6.94;79.31;98890.50;5073393;28;20073;-62
2021/01/12 01:04:48;;;;;;;16.07;8.57;;;;;;;-6.99;78.72;98892.75;5074610;28;20020;-62
2021/01/12 01:07:13;;;;;;;16.50;7.77;;;;;;;-7.00;78.46;98883.53;5073044;28;20020;-62
2021/01/12 01:09:39;;;;;;;13.87;7.63;;;;;;;-7.02;78.69;98881.75;5074362;28;20033;-63
2021/01/12 01:12:04;;;;;;;19.67;9.13;;;;;;;-7.07;78.63;98885.63;5073798;28;20085;-62
2021/01/12 01:14:30;;;;;;;15.60;8.30;;;;;;;-7.06;79.18;98892.34;5073898;28;20027;-62
2021/01/12 01:16:55;;;;;;;14.37;7.63;;;;;;;-7.04;79.81;98886.66;5073772;28;20017;-62
2021/01/12 01:19:21;;;;;;;14.57;8.10;;;;;;;-6.97;79.09;98883.72;5077519;28;20330;-63
2021/01/12 01:21:48;;;;;;;18.13;8.73;;;;;;;-6.85;79.28;98886.00;5076878;28;20024;-63
2021/01/12 01:24:13;;;;;;;14.87;8.23;;;;;;;-6.86;79.02;98884.28;5077498;28;20125;-63
2021/01/12 01:26:38;;;;;;;14.63;8.30;;;;;;;-6.83;79.01;98878.63;5077570;28;20450;-63
2021/01/12 01:29:04;;;;;;;15.80;7.77;;;;;;;-6.83;78.90;98864.50;5077528;28;20039;-63
2021/01/12 01:31:39;;;;;;;15.13;7.93;;;;;;;-6.82;78.10;98875.31;5075515;28;20036;-63
2021/01/12 01:34:05;;;;;;;13.23;8.20;;;;;;;-6.87;78.21;98869.28;5078586;28;20037;-63
2021/01/12 01:36:30;;;;;;;14.60;7.60;;;;;;;-6.88;77.79;98867.56;5075794;28;20317;-63
2021/01/12 01:38:56;;;;;;;12.00;7.80;;;;;;;-6.87;78.06;98866.78;5077508;28;20103;-63
2021/01/12 01:41:21;;;;;;;12.87;7.67;;;;;;;-6.91;78.62;98858.25;5077001;28;20112;-63
2021/01/12 01:43:47;;;;;;;16.03;7.70;;;;;;;-6.92;78.15;98869.03;5076326;28;20031;-63
2021/01/12 01:46:12;;;;;;;16.13;9.10;;;;;;;-6.96;78.37;98862.16;5078291;28;20024;-63
2021/01/12 01:48:37;;;;;;;15.43;8.20;;;;;;;-7.03;78.60;98857.63;5077257;28;20472;-63
2021/01/12 01:51:05;;;;;;;17.00;8.13;;;;;;;-7.00;77.74;98862.78;5078137;28;20016;-62
2021/01/12 01:53:35;;;;;;;16.80;8.23;;;;;;;-7.04;78.48;98860.88;5075651;28;20027;-63
2021/01/12 01:56:06;;;;;;;13.70;7.63;;;;;;;-7.06;78.22;98854.97;5073113;28;20255;-63
2021/01/12 01:58:32;;;;;;;12.80;7.33;;;;;;;-7.10;78.27;98853.97;5076523;28;20111;-62
2021/01/12 02:00:58;;;;;;;14.60;7.20;;;;;;;-7.10;79.15;98845.63;5077971;28;20024;-63
2021/01/12 02:03:30;;;;;;;12.77;6.80;;;;;;;-7.10;78.26;98845.63;5074668;28;20039;-62
2021/01/12 02:06:19;;;;;;;14.10;7.73;;;;;;;-7.01;78.42;98842.00;5077674;28;20021;-63
2021/01/12 02:09:01;;;;;;;14.83;7.60;;;;;;;-6.94;77.50;98835.69;5075496;28;20279;-63
2021/01/12 02:11:30;;;;;;;12.63;7.20;;;;;;;-7.00;77.36;98833.72;5067710;28;20028;-63
2021/01/12 02:14:01;;;;;;;14.00;7.10;;;;;;;-7.03;77.62;98828.59;5076417;28;20580;-63
2021/01/12 02:16:29;;;;;;;11.20;7.07;;;;;;;-7.12;77.03;98828.09;5076702;28;20404;-63
2021/01/12 02:18:56;;;;;;;14.03;7.60;;;;;;;-7.16;77.82;98820.38;5077284;28;20331;-63
2021/01/12 02:21:22;;;;;;;10.30;6.07;;;;;;;-7.19;77.83;98821.09;5074657;28;20266;-63
2021/01/12 02:23:55;;;;;;;13.03;7.27;;;;;;;-7.17;77.91;98824.50;5075313;28;20315;-63
2021/01/12 02:26:21;;;;;;;10.70;6.13;;;;;;;-7.22;77.92;98820.06;5076214;28;20070;-63
2021/01/12 02:28:47;;;;;;;9.67;6.13;;;;;;;-7.26;77.15;98819.06;5075113;28;20024;-63
2021/01/12 02:31:13;;;;;;;12.00;6.63;;;;;;;-7.29;77.98;98820.50;5076345;28;20021;-63
2021/01/12 02:33:40;;;;;;;12.27;6.57;;;;;;;-7.30;77.84;98816.31;5076080;28;20270;-62
2021/01/12 02:36:11;;;;;;;13.00;7.70;;;;;;;-7.32;77.94;98813.75;5076359;28;20095;-62
2021/01/12 02:38:37;;;;;;;12.27;6.53;;;;;;;-7.34;78.00;98811.97;5075839;28;20286;-63
2021/01/12 02:41:13;;;;;;;18.37;8.17;;;;;;;-7.37;78.83;98812.63;5073766;28;20028;-63
2021/01/12 02:43:41;;;;;;;13.40;7.60;;;;;;;-7.41;79.47;98806.63;5073084;28;20106;-62
2021/01/12 02:46:07;;;;;;;13.03;7.27;;;;;;;-7.42;78.48;98801.56;5075129;28;20306;-62
2021/01/12 02:48:32;;;;;;;12.80;6.67;;;;;;;-7.45;78.21;98799.78;5074739;28;20032;-62
2021/01/12 02:50:57;;;;;;;12.60;6.50;;;;;;;-7.47;78.59;98798.84;5075553;28;20046;-62
2021/01/12 02:53:23;;;;;;;12.70;7.27;;;;;;;-7.46;78.97;98789.75;5075101;28;20025;-62
2021/01/12 02:55:48;;;;;;;13.67;6.57;;;;;;;-7.51;78.35;98787.00;5076008;28;20322;-62
2021/01/12 02:58:14;;;;;;;10.90;6.60;;;;;;;-7.46;79.23;98784.75;5075799;28;20452;-62
2021/01/12 03:00:39;;;;;;;14.43;7.23;;;;;;;-7.50;78.91;98783.75;5074391;28;20479;-62
2021/01/12 03:03:05;;;;;;;13.07;7.60;;;;;;;-7.44;78.75;98783.22;5075938;28;20086;-63
2021/01/12 03:05:30;;;;;;;19.10;7.67;;;;;;;-7.42;78.88;98784.16;5074418;28;20040;-62
2021/01/12 03:07:55;;;;;;;16.20;7.07;;;;;;;-7.42;78.58;98781.66;5066954;28;20029;-62
2021/01/12 03:10:21;;;;;;;14.93;6.73;;;;;;;-7.39;78.65;98774.38;5065782;28;20441;-62
2021/01/12 03:12:46;;;;;;;14.10;6.77;;;;;;;-7.38;78.18;98776.06;5075537;28;20112;-62
2021/01/12 03:15:13;;;;;;;12.43;7.30;;;;;;;-7.28;77.71;98772.44;5071146;28;20020;-62
2021/01/12 03:17:38;;;;;;;12.97;7.23;;;;;;;-7.30;77.63;98769.88;5075597;28;20032;-61
2021/01/12 03:20:04;;;;;;;16.00;7.97;;;;;;;-7.28;77.23;98762.47;5075834;28;20025;-62
2021/01/12 03:22:30;;;;;;;10.37;6.60;;;;;;;-7.28;77.69;98764.97;5073091;28;20032;-61
2021/01/12 03:24:55;;;;;;;13.03;6.83;;;;;;;-7.33;77.41;98756.38;5075526;28;20024;-61
2021/01/12 03:27:20;;;;;;;12.50;6.73;;;;;;;-7.37;77.96;98760.34;5075503;28;20465;-60
2021/01/12 03:29:46;;;;;;;11.73;6.67;;;;;;;-7.41;78.12;98754.38;5074939;28;20036;-61
2021/01/12 03:32:11;;;;;;;11.67;6.60;;;;;;;-7.48;78.19;98741.53;5075132;28;20120;-60
2021/01/12 03:34:36;;;;;;;13.67;6.53;;;;;;;-7.43;77.98;98743.50;5075521;28;20112;-61
2021/01/12 03:37:02;;;;;;;15.97;7.10;;;;;;;-7.46;77.22;98743.31;5074033;28;20053;-60
2021/01/12 03:39:27;;;;;;;13.17;6.63;;;;;;;-7.48;77.54;98744.88;5070863;28;20032;-61
2021/01/12 03:41:53;;;;;;;12.10;7.03;;;;;;;-7.51;78.17;98747.19;5065978;28;20032;-61
2021/01/12 03:44:18;;;;;;;13.20;7.80;;;;;;;-7.53;78.01;98742.91;5070223;28;20397;-61
2021/01/12 03:46:44;;;;;;;13.43;6.90;;;;;;;-7.52;78.12;98740.50;5068557;28;20032;-61
2021/01/12 03:49:09;;;;;;;15.80;6.80;;;;;;;-7.57;77.48;98726.09;5072212;28;20066;-61
2021/01/12 03:51:35;;;;;;;13.10;6.57;;;;;;;-7.58;78.23;98717.78;5074914;28;20032;-61
2021/01/12 03:54:01;;;;;;;13.23;6.70;;;;;;;-7.61;77.57;98717.63;5072202;28;20107;-61
2021/01/12 03:56:26;;;;;;;15.80;7.63;;;;;;;-7.65;78.89;98720.72;5073927;28;20437;-61
2021/01/12 03:58:51;;;;;;;17.00;8.00;;;;;;;-7.72;79.34;98711.19;5073828;28;20047;-61
2021/01/12 04:01:17;;;;;;;15.37;8.57;;;;;;;-7.70;78.57;98712.16;5072752;28;20056;-61
2021/01/12 04:03:43;;;;;;;14.53;8.23;;;;;;;-7.67;78.87;98713.94;5072637;28;20364;-61
2021/01/12 04:06:16;;;;;;;15.80;7.47;;;;;;;-7.64;78.10;98711.63;5072599;28;20055;-61
2021/01/12 04:08:43;;;;;;;15.00;8.70;;;;;;;-7.60;78.24;98711.88;5073299;28;20028;-65
2021/01/12 04:11:09;;;;;;;14.37;8.13;;;;;;;-7.57;77.94;98716.16;5072334;28;20267;-61
2021/01/12 04:13:35;;;;;;;13.27;7.37;;;;;;;-7.57;78.45;98716.16;5073710;28;21022;-61
2021/01/12 04:16:02;;;;;;;15.93;7.63;;;;;;;-7.56;77.71;98717.88;5070974;28;20267;-61
2021/01/12 04:18:27;;;;;;;12.90;6.93;;;;;;;-7.62;77.79;98712.53;5072757;28;20412;-61
2021/01/12 04:20:53;;;;;;;17.23;7.63;;;;;;;-7.51;77.50;98709.00;5072861;28;20321;-61
2021/01/12 04:23:18;;;;;;;16.17;7.40;;;;;;;-7.56;77.43;98712.88;5073849;28;20032;-61
2021/01/12 04:25:44;;;;;;;21.03;7.70;;;;;;;-7.50;77.55;98704.09;5068436;28;20036;-61
2021/01/12 04:28:09;;;;;;;11.63;7.60;;;;;;;-7.55;77.48;98702.13;5066175;28;20041;-61
2021/01/12 04:30:35;;;;;;;16.20;7.80;;;;;;;-7.55;77.75;98694.66;5074790;28;20020;-61
2021/01/12 04:33:00;;;;;;;15.07;8.43;;;;;;;-7.54;77.60;98692.25;5075036;28;20499;-61
2021/01/12 04:35:25;;;;;;;13.80;6.90;;;;;;;-7.58;77.49;98697.00;5071707;28;20024;-61
2021/01/12 04:37:51;;;;;;;17.67;8.77;;;;;;;-7.61;77.60;98700.19;5073418;28;20064;-61
2021/01/12 04:40:16;;;;;;;13.00;7.40;;;;;;;-7.67;77.88;98699.88;5071907;28;20425;-61
2021/01/12 04:42:42;;;;;;;13.50;7.10;;;;;;;-7.69;77.50;98691.47;5074494;28;20035;-61
2021/01/12 04:45:08;;;;;;;17.57;7.97;;;;;;;-7.74;77.64;98685.41;5072985;28;20338;-61
2021/01/12 04:47:34;;;;;;;16.43;9.43;;;;;;;-7.73;78.28;98678.78;5074228;28;20282;-62
2021/01/12 04:50:01;;;;;;;15.27;9.47;;;;;;;-7.72;78.74;98680.50;5072905;28;20515;-61
2021/01/12 04:52:27;;;;;;;23.17;9.60;;;;;;;-7.76;78.94;98673.66;5072362;28;20088;-61
2021/01/12 04:54:53;;;;;;;24.27;11.13;;;;;;;-7.65;78.46;98678.41;5072650;28;20675;-61
2021/01/12 04:57:19;;;;;;;18.17;10.03;;;;;;;-7.63;78.20;98673.50;5074980;28;20425;-62
2021/01/12 04:59:45;;;;;;;16.23;8.53;;;;;;;-7.60;78.08;98671.19;5073833;28;20336;-61
2021/01/12 05:02:13;;;;;;;16.30;8.30;;;;;;;-7.62;78.30;98667.75;5073787;28;20020;-61
2021/01/12 05:04:40;;;;;;;13.93;7.33;;;;;;;-7.58;78.04;98659.66;5073786;28;20124;-62
2021/01/12 05:07:09;;;;;;;15.43;8.10;;;;;;;-7.54;78.29;98654.94;5073581;28;20297;-61
2021/01/12 05:09:38;;;;;;;11.07;7.00;;;;;;;-7.52;78.01;98640.94;5073797;28;20316;-61
2021/01/12 05:12:04;;;;;;;10.80;6.27;;;;;;;-7.40;77.27;98639.09;5073192;28;20449;-61
2021/01/12 05:14:32;;;;;;;13.27;7.10;;;;;;;-7.32;77.40;98646.06;5073330;28;20267;-61
2021/01/12 05:16:58;;;;;;;13.27;6.90;;;;;;;-7.27;77.49;98643.03;5072802;28;20753;-61
2021/01/12 05:19:29;;;;;;;13.13;6.97;;;;;;;-7.16;76.60;98644.41;5073366;28;20342;-61
2021/01/12 05:22:01;;;;;;;13.70;6.40;;;;;;;-7.20;77.21;98644.19;5071773;28;20119;-61
2021/01/12 05:24:27;;;;;;;12.77;6.17;;;;;;;-7.20;76.69;98646.69;5073674;28;20279;-61
2021/01/12 05:27:04;;;;;;;13.93;6.77;;;;;;;-7.20;76.55;98644.19;5072649;28;20628;-62
2021/01/12 05:29:35;;;;;;;11.27;5.97;;;;;;;-7.22;76.73;98636.66;5071858;28;20103;-62
2021/01/12 05:32:03;;;;;;;8.53;6.30;;;;;;;-7.25;76.77;98645.59;5073319;28;20273;-61
2021/01/12 05:34:29;;;;;;;12.43;6.37;;;;;;;-7.29;76.85;98643.72;5073764;28;20048;-61
2021/01/12 05:36:56;;;;;;;9.83;5.70;;;;;;;-7.29;76.58;98631.28;5074288;28;20326;-62
2021/01/12 05:39:24;;;;;;;11.10;6.00;;;;;;;-7.29;76.74;98641.22;5071712;28;20031;-62
2021/01/12 05:41:52;;;;;;;11.30;6.00;;;;;;;-7.30;77.18;98637.06;5072294;28;20262;-62
2021/01/12 05:44:20;;;;;;;13.13;6.87;;;;;;;-7.25;76.63;98640.59;5072294;28;20314;-61
2021/01/12 05:46:47;;;;;;;8.63;4.80;;;;;;;-7.29;77.25;98643.72;5072271;28;20298;-61
2021/01/12 05:49:13;;;;;;;12.23;5.73;;;;;;;-7.26;76.59;98633.94;5072518;28;20063;-61
2021/01/12 05:51:46;;;;;;;12.00;5.87;;;;;;;-7.20;76.29;98631.75;5073555;28;20298;-61
2021/01/12 05:54:27;;;;;;;10.00;5.13;;;;;;;-7.22;76.77;98635.81;5072456;28;20051;-61
2021/01/12 05:56:59;;;;;;;11.30;5.50;;;;;;;-7.17;76.79;98627.75;5073325;28;20042;-61
2021/01/12 05:59:26;;;;;;;13.47;4.60;;;;;;;-7.25;77.02;98620.69;5070961;28;20077;-61
2021/01/12 06:01:53;;;;;;;10.70;5.50;;;;;;;-7.09;76.69;98628.16;5072058;28;20028;-61
2021/01/12 06:04:19;;;;;;;15.10;6.67;;;;;;;-7.14;76.16;98635.41;5073451;28;20723;-60
2021/01/12 06:06:49;;;;;;;10.93;6.27;;;;;;;-7.01;76.14;98637.72;5075527;28;20377;-60
2021/01/12 06:09:16;;;;;;;10.23;5.63;;;;;;;-7.01;76.14;98635.25;5076862;28;20595;-61
2021/01/12 06:11:44;;;;;;;12.07;6.00;;;;;;;-6.94;76.24;98628.91;5075875;28;20028;-61
2021/01/12 06:14:14;;;;;;;13.17;6.77;;;;;;;-6.85;75.51;98631.00;5077022;28;20071;-61
2021/01/12 06:16:42;;;;;;;9.77;5.07;;;;;;;-6.84;76.52;98631.06;5075254;28;20223;-61
2021/01/12 06:19:09;;;;;;;15.17;6.07;;;;;;;-6.77;75.37;98628.09;5077113;28;20029;-61
2021/01/12 06:21:43;;;;;;;11.13;6.07;;;;;;;-6.77;75.09;98628.09;5075095;28;20480;-61
2021/01/12 06:24:18;;;;;;;9.30;5.07;;;;;;;-6.74;75.62;98627.38;5077332;28;20028;-61
2021/01/12 06:26:43;;;;;;;;;;;;;;;-6.76;75.87;98627.31;5075527;28;20032;-60
2021/01/12 06:29:09;;;;;;;12.63;5.47;;;;;;;-6.87;76.55;98620.09;5076892;28;19922;-61
2021/01/12 06:31:50;;;;;;;10.90;4.73;;;;;;;-6.70;75.91;98617.63;5075396;28;20090;-61
2021/01/12 06:34:19;;;;;;;9.77;4.90;;;;;;;-6.66;76.63;98612.00;5059791;28;20033;-61
2021/01/12 06:36:53;;;;;;;14.07;5.40;;;;;;;-6.57;76.14;98614.06;5055780;28;20292;-61
2021/01/12 06:39:28;;;;;;;11.63;5.93;;;;;;;-6.56;75.92;98616.66;5063442;28;20274;-61
2021/01/12 06:41:54;;;;;;;11.20;4.35;;;;;;;-6.57;75.85;98614.94;5076022;28;20263;-61
2021/01/12 06:44:25;;;;;;;12.57;5.40;;;;;;;-6.53;75.84;98613.44;5073818;28;20028;-61
2021/01/12 06:46:52;;;;;;;11.23;5.23;;;;;;;-6.57;76.09;98612.44;5076415;28;20412;-61
2021/01/12 06:49:22;;;;;;;10.37;5.73;;;;;;;-6.49;75.96;98616.13;5069132;28;20294;-61
2021/01/12 06:52:04;;;;;;;10.23;5.43;;;;;;;-6.37;75.76;98623.38;5076643;28;20271;-61
2021/01/12 06:54:34;;;;;;;9.97;6.10;;;;;;;-6.34;76.16;98615.16;5056674;28;20025;-61
2021/01/12 06:57:03;;;;;;;14.33;4.97;;;;;;;-6.26;75.50;98613.88;5075716;28;20267;-61
2021/01/12 06:59:33;;;;;;;12.70;5.60;;;;;;;-6.18;75.66;98600.09;5074223;28;20096;-63
2021/01/12 07:01:58;;;;;;;9.37;5.70;;;;;;;-6.12;76.05;98597.91;5075408;28;20465;-62
2021/01/12 07:04:28;;;;;;;9.60;4.87;;;;;;;-6.05;75.98;98592.38;5065442;28;20095;-63
2021/01/12 07:06:58;;;;;;;7.57;4.43;;;;;;;-5.95;75.03;98597.03;5070928;28;20023;-63
2021/01/12 07:09:25;;;;;;;10.97;6.33;;;;;;;-5.87;74.78;98598.22;5076327;28;20039;-61
2021/01/12 07:12:02;;;;;;;13.13;5.40;;;;;;;-5.79;75.45;98601.00;5074185;28;20376;-63
2021/01/12 07:14:28;;;;;;;12.00;5.27;;;;;;;-5.67;74.53;98599.91;5056007;28;20036;-63
2021/01/12 07:17:04;;;;;;;9.10;4.93;;;;;;;-5.48;75.17;98594.06;5055960;28;20017;-63
2021/01/12 07:19:33;;;;;;;10.23;6.07;;;;;;;-5.38;75.64;98588.66;5075907;28;20464;-62
2021/01/12 07:22:17;;;;;;;17.50;9.03;;;;;;;-5.28;74.86;98587.41;5074881;28;20039;-62
2021/01/12 07:24:47;;;;;;;21.07;10.20;;;;;;;-5.15;74.93;98587.13;5071146;28;20024;-63
2021/01/12 07:27:14;;;;;;;15.10;8.90;;;;;;;-4.96;73.75;98587.06;5074383;28;20029;-62
2021/01/12 07:29:51;;;;;;;16.10;8.67;;;;;;;-5.01;72.90;98597.69;5074538;28;20035;-63
2021/01/12 07:32:28;;;;;;;13.93;7.80;;;;;;;-5.16;72.31;98593.75;5074261;28;20528;-63
2021/01/12 07:34:55;;;;;;;15.60;7.63;;;;;;;-5.16;72.44;98588.78;5073869;28;20381;-62
2021/01/12 07:37:34;;;;;;;14.97;8.63;;;;;;;-5.08;71.91;98592.44;5074052;28;20488;-62
2021/01/12 07:39:59;;;;;;;16.33;8.30;;;;;;;-5.26;72.00;98593.34;5074730;28;20032;-62
2021/01/12 07:42:25;;;;;;;17.40;9.17;;;;;;;-5.16;71.93;98582.91;5074772;28;20349;-63
2021/01/12 07:44:51;;;;;;;11.57;7.23;;;;;;;-5.04;72.02;98590.91;5073485;28;20024;-62
2021/01/12 07:47:17;;;;;;;18.60;7.70;;;;;;;-5.06;72.74;98592.50;5073160;28;20032;-62
2021/01/12 07:49:43;;;;;;;17.37;9.23;;;;;;;-5.00;73.26;98581.88;5074187;28;20029;-63
2021/01/12 07:52:09;;;;;;;18.90;9.27;;;;;;;-4.89;72.78;98579.06;5074998;28;20024;-63
2021/01/12 07:54:35;;;;;;;37.23;16.43;;;;;;;-4.75;72.65;98577.94;5062369;28;20036;-63
2021/01/12 07:57:01;;;;;;;31.10;13.50;;;;;;;-4.69;73.06;98574.84;5063147;28;20109;-63
2021/01/12 07:59:27;;;;;;;41.93;14.83;;;;;;;-4.65;73.27;98566.66;5071921;28;20131;-63
2021/01/12 08:01:53;;;;;;;53.67;19.13;;;;;;;-4.62;74.02;98564.28;5072911;28;20397;-63
2021/01/12 08:04:19;;;;;;;53.00;18.03;;;;;;;-4.42;73.37;98560.06;5073086;28;20074;-63
2021/01/12 08:06:46;;;;;;;46.60;17.20;;;;;;;-4.29;73.34;98553.06;5074595;28;20369;-63
2021/01/12 08:09:20;;;;;;;41.63;16.20;;;;;;;-4.24;73.01;98554.06;5073657;28;20024;-62
2021/01/12 08:11:46;;;;;;;44.53;16.67;;;;;;;-4.12;72.63;98555.34;5074471;28;20033;-63
2021/01/12 08:14:11;;;;;;;28.57;12.53;;;;;;;-4.20;73.81;98553.41;5073399;28;20028;-63
2021/01/12 08:16:37;;;;;;;19.60;10.53;;;;;;;-4.14;73.45;98545.28;5074301;28;20035;-63
2021/01/12 08:19:02;;;;;;;27.77;10.17;;;;;;;-3.93;73.65;98542.69;5073095;28;20024;-63
2021/01/12 08:21:39;;;;;;;21.13;9.03;;;;;;;-3.66;72.27;98542.84;5074477;28;20035;-62
2021/01/12 08:24:06;;;;;;;28.50;11.00;;;;;;;-3.45;71.30;98546.06;5073289;28;20028;-62
2021/01/12 08:26:31;;;;;;;23.30;10.43;;;;;;;-3.31;71.46;98538.22;5074188;28;20024;-62
2021/01/12 08:28:57;;;;;;;27.13;13.77;;;;;;;-3.15;70.86;98541.25;5071605;28;20094;-62
2021/01/12 08:31:22;;;;;;;38.43;15.07;;;;;;;-3.18;71.28;98549.50;5073881;28;20017;-62
2021/01/12 08:33:51;;;;;;;24.47;13.47;;;;;;;-2.87;71.16;98542.19;5073140;28;20388;-63
2021/01/12 08:36:20;;;;;;;22.90;11.53;;;;;;;-2.62;69.94;98546.31;5073318;28;20461;-63
2021/01/12 08:38:52;;;;;;;17.77;10.97;;;;;;;-2.77;69.39;98541.69;5072927;28;20501;-63
2021/01/12 08:41:18;;;;;;;17.17;10.73;;;;;;;-2.64;70.38;98539.56;5073578;28;20101;-62
2021/01/12 08:43:44;;;;;;;17.60;9.43;;;;;;;-2.71;70.79;98538.50;5073616;28;20032;-62
2021/01/12 08:46:10;;;;;;;15.37;8.33;;;;;;;-2.50;70.09;98534.13;5074135;28;20070;-62
2021/01/12 08:48:36;;;;;;;12.17;7.13;;;;;;;-2.71;70.11;98532.63;5074585;28;20052;-63
2021/01/12 08:51:13;;;;;;;14.87;6.93;;;;;;;-2.29;68.63;98528.91;5073838;28;20485;-62
2021/01/12 08:53:39;;;;;;;12.20;6.67;;;;;;;-2.27;68.50;98536.50;5075088;28;20020;-62
2021/01/12 08:56:05;;;;;;;13.40;8.37;;;;;;;-2.09;68.18;98539.56;5073425;28;20089;-62
2021/01/12 08:58:31;;;;;;;24.87;12.77;;;;;;;-1.97;67.36;98530.72;5074078;28;20338;-62
2021/01/12 09:00:56;;;;;;;27.67;16.37;;;;;;;-2.09;67.55;98527.00;5071146;28;20035;-63
2021/01/12 09:03:21;;;;;;;30.57;16.97;;;;;;;-1.94;68.13;98527.41;5073239;28;20017;-63
2021/01/12 09:05:49;;;;;;;29.73;16.30;;;;;;;-1.70;67.46;98522.25;5072593;28;20028;-63
2021/01/12 09:08:17;;;;;;;22.30;11.60;;;;;;;-1.68;66.19;98518.94;5073298;28;20036;-63
2021/01/12 09:10:42;;;;;;;12.93;7.50;;;;;;;-1.73;65.87;98522.13;5073469;28;20025;-63
2021/01/12 09:13:09;;;;;;;13.67;7.37;;;;;;;-1.57;65.00;98522.59;5071968;28;20032;-63
2021/01/12 09:15:48;;;;;;;12.13;5.77;;;;;;;-1.64;64.62;98514.84;5073611;28;20380;-63
2021/01/12 09:18:23;;;;;;;11.03;6.03;;;;;;;-1.50;63.29;98518.59;5072603;28;20065;-63
2021/01/12 09:21:03;;;;;;;13.50;5.72;;;;;;;-1.27;63.28;98522.53;5073611;28;20028;-63
2021/01/12 09:23:29;;;;;;;8.40;5.03;;;;;;;-1.30;62.08;98516.59;5072780;28;20032;-63
2021/01/12 09:26:01;;;;;;;9.23;4.60;;;;;;;-1.18;62.62;98510.19;5073579;28;20085;-63
2021/01/12 09:28:36;;;;;;;10.73;5.70;;;;;;;-1.35;62.81;98515.59;5072629;28;20051;-63
2021/01/12 09:31:06;;;;;;;10.00;5.20;;;;;;;-1.22;62.44;98505.91;5073492;28;20020;-63
2021/01/12 09:33:33;;;;;;;9.10;5.20;;;;;;;-1.05;61.89;98508.84;5070415;28;20402;-63
2021/01/12 09:36:06;;;;;;;9.90;5.47;;;;;;;-0.95;60.94;98494.03;5071719;28;20107;-63
2021/01/12 09:38:36;;;;;;;9.67;5.30;;;;;;;-0.95;61.54;98486.47;5072225;28;20040;-63
2021/01/12 09:41:01;;;;;;;9.97;5.47;;;;;;;-0.87;61.39;98478.25;5075634;28;20032;-63
2021/01/12 09:43:27;;;;;;;16.00;7.60;;;;;;;-0.78;61.21;98474.28;5076927;28;20020;-63
2021/01/12 09:45:52;;;;;;;22.60;12.07;;;;;;;-0.69;61.57;98477.00;5076767;28;20468;-63
2021/01/12 09:48:18;;;;;;;12.37;7.13;;;;;;;-0.75;61.63;98471.81;5076590;28;20020;-63
2021/01/12 09:50:43;;;;;;;10.67;7.27;;;;;;;-0.63;61.17;98466.22;5077251;28;20043;-63
2021/01/12 09:53:08;;;;;;;15.60;6.40;;;;;;;-0.54;60.76;98463.91;5076032;28;20036;-63
2021/01/12 09:55:34;;;;;;;14.80;6.83;;;;;;;-0.60;61.04;98451.19;5077117;28;20104;-63
2021/01/12 09:57:59;;;;;;;9.27;6.80;;;;;;;-0.47;61.19;98448.13;5075928;28;20441;-63
2021/01/12 10:00:24;;;;;;;13.97;6.90;;;;;;;-0.51;62.15;98436.28;5077015;28;20073;-63
2021/01/12 10:02:50;;;;;;;39.63;16.17;;;;;;;-0.39;60.85;98441.59;5075944;28;20081;-63
2021/01/12 10:05:15;;;;;;;19.53;11.20;;;;;;;-0.31;60.42;98437.56;5077026;28;20416;-63
2021/01/12 10:07:41;;;;;;;11.93;6.80;;;;;;;-0.22;60.28;98430.19;5075347;28;20077;-63
2021/01/12 10:10:07;;;;;;;17.03;7.87;;;;;;;-0.09;60.64;98431.28;5077728;28;20024;-63
2021/01/12 10:12:32;;;;;;;16.47;8.20;;;;;;;-0.14;60.61;98430.34;5075242;28;20043;-63
2021/01/12 10:14:57;;;;;;;10.37;7.20;;;;;;;0.03;60.52;98429.00;5076808;28;20461;-63
2021/01/12 10:17:23;;;;;;;14.17;7.33;;;;;;;0.04;60.11;98414.72;5075905;28;20028;-63
2021/01/12 10:19:48;;;;;;;11.47;7.13;;;;;;;0.09;60.47;98413.13;5076623;28;20401;-63
2021/01/12 10:22:13;;;;;;;10.70;6.43;;;;;;;0.00;60.30;98421.38;5075900;28;20040;-63
2021/01/12 10:24:39;;;;;;;13.00;7.13;;;;;;;0.13;60.58;98398.06;5058580;28;20063;-63
2021/01/12 10:27:04;;;;;;;12.97;7.50;;;;;;;0.14;60.08;98402.31;5071693;28;20090;-63
2021/01/12 10:29:30;;;;;;;16.60;7.60;;;;;;;-0.18;61.09;98398.34;5069312;28;20094;-63
2021/01/12 10:31:56;;;;;;;12.27;6.87;;;;;;;-0.22;61.76;98392.41;5075722;28;20039;-63
2021/01/12 10:34:24;;;;;;;12.03;7.80;;;;;;;-0.14;62.05;98383.31;5075521;28;20021;-63
2021/01/12 10:36:50;;;;;;;14.93;8.60;;;;;;;-0.21;62.79;98378.97;5075998;28;20476;-63
2021/01/12 10:39:16;;;;;;;14.50;7.73;;;;;;;-0.10;62.14;98364.94;5075388;28;20507;-63
2021/01/12 10:41:42;;;;;;;16.07;8.47;;;;;;;-0.16;61.90;98364.78;5076133;28;20020;-63
2021/01/12 10:44:07;;;;;;;13.50;7.40;;;;;;;-0.21;61.97;98361.34;5060754;28;20453;-63
2021/01/12 10:46:33;;;;;;;13.10;7.83;;;;;;;-0.79;63.91;98361.84;5055242;28;20098;-63
2021/01/12 10:48:58;;;;;;;11.97;7.37;;;;;;;-0.52;63.43;98359.06;5075053;28;20021;-63
2021/01/12 10:51:24;;;;;;;12.57;7.50;;;;;;;-0.32;63.29;98344.34;5074624;28;20106;-63
2021/01/12 10:53:50;;;;;;;15.37;8.63;;;;;;;-0.07;61.99;98341.44;5075261;28;20549;-63
2021/01/12 10:56:16;;;;;;;14.10;9.37;;;;;;;0.03;62.07;98352.53;5076437;28;20032;-63
2021/01/12 10:58:42;;;;;;;19.20;10.47;;;;;;;0.23;61.71;98341.13;5075011;28;20025;-64
2021/01/12 11:01:14;;;;;;;16.37;9.10;;;;;;;0.31;61.20;98335.38;5076046;28;20119;-64
2021/01/12 11:03:39;;;;;;;16.90;9.83;;;;;;;0.39;60.98;98327.94;5069204;28;20125;-64
2021/01/12 11:06:05;;;;;;;17.03;9.30;;;;;;;0.54;60.66;98319.78;5055991;28;20109;-64
2021/01/12 11:08:31;;;;;;;12.83;8.20;;;;;;;0.53;60.88;98318.94;5058213;28;20399;-64
2021/01/12 11:10:56;;;;;;;14.80;8.50;;;;;;;0.61;60.88;98317.38;5076279;28;20033;-64
2021/01/12 11:13:22;;;;;;;17.20;9.40;;;;;;;0.64;60.22;98319.09;5074231;28;20467;-63
2021/01/12 11:15:47;;;;;;;12.60;7.10;;;;;;;0.41;60.36;98306.16;5075737;28;20024;-63
2021/01/12 11:18:14;;;;;;;13.57;7.43;;;;;;;0.07;60.85;98299.72;5074598;28;20020;-64
2021/01/12 11:20:41;;;;;;;14.60;7.90;;;;;;;0.13;61.07;98292.22;5074659;28;20097;-63
2021/01/12 11:23:07;;;;;;;10.73;7.43;;;;;;;0.21;60.79;98284.81;5074907;28;20024;-63
2021/01/12 11:25:32;;;;;;;15.03;8.27;;;;;;;-0.01;61.16;98274.38;5075181;28;20024;-63
2021/01/12 11:27:58;;;;;;;11.83;7.47;;;;;;;0.13;61.18;98281.34;5074678;28;20107;-64